sensor_id;sensor_type;location;lat;lon;timestamp;temperature;humidity
318;DHT22;146;53.448;10.228;2022-11-20T00:01:29;2.80;1.00
318;DHT22;146;53.448;10.228;2022-11-20T00:03:57;2.80;1.00
318;DHT22;146;53.448;10.228;2022-11-20T00:06:26;2.80;1.00
318;DHT22;146;53.448;10.228;2022-11-20T00:08:55;2.70;1.00
318;DHT22;146;53.448;10.228;2022-11-20T00:11:24;2.70;1.00
318;DHT22;146;53.448;10.228;2022-11-20T00:13:54;2.60;1.00
318;DHT22;146;53.448;10.228;2022-11-20T00:16:25;2.70;1.00
318;DHT22;146;53.448;10.228;2022-11-20T00:18:52;2.70;1.00
318;DHT22;146;53.448;10.228;2022-11-20T00:21:23;2.70;1.00
318;DHT22;146;53.448;10.228;2022-11-20T00:23:54;2.70;1.00
318;DHT22;146;53.448;10.228;2022-11-20T00:26:22;2.70;1.00
318;DHT22;146;53.448;10.228;2022-11-20T00:28:51;2.60;1.00
318;DHT22;146;53.448;10.228;2022-11-20T00:31:18;2.60;1.00
318;DHT22;146;53.448;10.228;2022-11-20T00:33:46;2.60;1.00
318;DHT22;146;53.448;10.228;2022-11-20T00:36:14;2.60;1.00
318;DHT22;146;53.448;10.228;2022-11-20T00:38:44;2.60;1.00
318;DHT22;146;53.448;10.228;2022-11-20T00:41:14;2.50;1.00
318;DHT22;146;53.448;10.228;2022-11-20T00:43:41;2.50;1.00
318;DHT22;146;53.448;10.228;2022-11-20T00:46:10;2.50;1.00
318;DHT22;146;53.448;10.228;2022-11-20T00:48:37;2.60;1.00
318;DHT22;146;53.448;10.228;2022-11-20T00:51:07;2.60;1.00
318;DHT22;146;53.448;10.228;2022-11-20T00:53:37;2.60;1.00
318;DHT22;146;53.448;10.228;2022-11-20T00:56:05;2.60;1.00
318;DHT22;146;53.448;10.228;2022-11-20T00:58:36;2.60;1.00
318;DHT22;146;53.448;10.228;2022-11-20T01:01:05;2.60;1.00
318;DHT22;146;53.448;10.228;2022-11-20T01:03:33;2.50;1.00
318;DHT22;146;53.448;10.228;2022-11-20T01:06:01;2.50;1.00
318;DHT22;146;53.448;10.228;2022-11-20T01:08:32;2.50;1.00
318;DHT22;146;53.448;10.228;2022-11-20T01:11:00;2.40;1.00
318;DHT22;146;53.448;10.228;2022-11-20T01:13:27;2.40;1.00
318;DHT22;146;53.448;10.228;2022-11-20T01:16:09;2.30;1.00
318;DHT22;146;53.448;10.228;2022-11-20T01:18:38;2.30;1.00
318;DHT22;146;53.448;10.228;2022-11-20T01:21:06;2.30;1.00
318;DHT22;146;53.448;10.228;2022-11-20T01:23:35;2.30;1.00
318;DHT22;146;53.448;10.228;2022-11-20T01:26:03;2.20;1.00
318;DHT22;146;53.448;10.228;2022-11-20T01:28:31;2.10;1.00
318;DHT22;146;53.448;10.228;2022-11-20T01:30:59;2.10;1.00
318;DHT22;146;53.448;10.228;2022-11-20T01:33:27;2.10;1.00
318;DHT22;146;53.448;10.228;2022-11-20T01:36:03;2.10;1.00
318;DHT22;146;53.448;10.228;2022-11-20T01:38:30;2.00;1.00
318;DHT22;146;53.448;10.228;2022-11-20T01:40:57;2.00;1.00
318;DHT22;146;53.448;10.228;2022-11-20T01:43:25;1.90;1.00
318;DHT22;146;53.448;10.228;2022-11-20T01:46:00;1.90;1.00
318;DHT22;146;53.448;10.228;2022-11-20T01:48:33;2.10;1.00
318;DHT22;146;53.448;10.228;2022-11-20T01:51:02;2.10;1.00
318;DHT22;146;53.448;10.228;2022-11-20T01:53:32;2.10;1.00
318;DHT22;146;53.448;10.228;2022-11-20T01:56:03;2.10;1.00
318;DHT22;146;53.448;10.228;2022-11-20T01:58:35;2.10;1.00
318;DHT22;146;53.448;10.228;2022-11-20T02:01:03;2.10;1.00
318;DHT22;146;53.448;10.228;2022-11-20T02:03:32;2.10;1.00
318;DHT22;146;53.448;10.228;2022-11-20T02:06:05;2.10;1.00
318;DHT22;146;53.448;10.228;2022-11-20T02:08:35;2.10;1.00
318;DHT22;146;53.448;10.228;2022-11-20T02:11:03;2.10;1.00
318;DHT22;146;53.448;10.228;2022-11-20T02:13:29;2.20;1.00
318;DHT22;146;53.448;10.228;2022-11-20T02:16:19;2.20;1.00
318;DHT22;146;53.448;10.228;2022-11-20T02:18:49;2.20;1.00
318;DHT22;146;53.448;10.228;2022-11-20T02:21:30;2.20;1.00
318;DHT22;146;53.448;10.228;2022-11-20T02:24:06;2.10;1.00
318;DHT22;146;53.448;10.228;2022-11-20T02:26:39;2.20;1.00
318;DHT22;146;53.448;10.228;2022-11-20T02:29:07;2.10;1.00
318;DHT22;146;53.448;10.228;2022-11-20T02:31:40;2.20;1.00
318;DHT22;146;53.448;10.228;2022-11-20T02:34:08;2.20;1.00
318;DHT22;146;53.448;10.228;2022-11-20T02:36:36;2.20;1.00
318;DHT22;146;53.448;10.228;2022-11-20T02:39:06;2.40;1.00
318;DHT22;146;53.448;10.228;2022-11-20T02:41:35;2.30;1.00
318;DHT22;146;53.448;10.228;2022-11-20T02:44:03;2.40;1.00
318;DHT22;146;53.448;10.228;2022-11-20T02:46:30;2.40;1.00
318;DHT22;146;53.448;10.228;2022-11-20T02:48:58;2.40;1.00
318;DHT22;146;53.448;10.228;2022-11-20T02:51:24;2.50;1.00
318;DHT22;146;53.448;10.228;2022-11-20T02:53:51;2.50;1.00
318;DHT22;146;53.448;10.228;2022-11-20T02:56:20;2.50;1.00
318;DHT22;146;53.448;10.228;2022-11-20T02:58:46;2.40;1.00
318;DHT22;146;53.448;10.228;2022-11-20T03:01:13;2.50;1.00
318;DHT22;146;53.448;10.228;2022-11-20T03:03:40;2.40;1.00
318;DHT22;146;53.448;10.228;2022-11-20T03:06:09;2.40;1.00
318;DHT22;146;53.448;10.228;2022-11-20T03:08:35;2.40;1.00
318;DHT22;146;53.448;10.228;2022-11-20T03:11:04;2.30;1.00
318;DHT22;146;53.448;10.228;2022-11-20T03:13:33;2.30;1.00
318;DHT22;146;53.448;10.228;2022-11-20T03:16:08;2.20;1.00
318;DHT22;146;53.448;10.228;2022-11-20T03:18:36;2.10;1.00
318;DHT22;146;53.448;10.228;2022-11-20T03:21:03;2.00;1.00
318;DHT22;146;53.448;10.228;2022-11-20T03:23:30;2.00;1.00
318;DHT22;146;53.448;10.228;2022-11-20T03:26:11;2.00;1.00
318;DHT22;146;53.448;10.228;2022-11-20T03:28:40;2.00;1.00
318;DHT22;146;53.448;10.228;2022-11-20T03:31:09;2.00;1.00
318;DHT22;146;53.448;10.228;2022-11-20T03:33:36;2.00;1.00
318;DHT22;146;53.448;10.228;2022-11-20T03:36:04;2.00;1.00
318;DHT22;146;53.448;10.228;2022-11-20T03:38:34;2.00;1.00
318;DHT22;146;53.448;10.228;2022-11-20T03:41:02;2.00;1.00
318;DHT22;146;53.448;10.228;2022-11-20T03:43:29;2.10;1.00
318;DHT22;146;53.448;10.228;2022-11-20T03:45:58;2.20;1.00
318;DHT22;146;53.448;10.228;2022-11-20T03:48:25;2.20;1.00
318;DHT22;146;53.448;10.228;2022-11-20T03:50:52;2.20;1.00
318;DHT22;146;53.448;10.228;2022-11-20T03:53:19;2.30;1.00
318;DHT22;146;53.448;10.228;2022-11-20T03:55:50;2.40;1.00
318;DHT22;146;53.448;10.228;2022-11-20T03:58:17;2.30;1.00
318;DHT22;146;53.448;10.228;2022-11-20T04:00:44;2.30;1.00
318;DHT22;146;53.448;10.228;2022-11-20T04:03:13;2.30;1.00
318;DHT22;146;53.448;10.228;2022-11-20T04:05:40;2.30;1.00
318;DHT22;146;53.448;10.228;2022-11-20T04:08:07;2.30;1.00
318;DHT22;146;53.448;10.228;2022-11-20T04:10:34;2.30;1.00
318;DHT22;146;53.448;10.228;2022-11-20T04:13:01;2.20;1.00
318;DHT22;146;53.448;10.228;2022-11-20T04:15:28;2.20;1.00
318;DHT22;146;53.448;10.228;2022-11-20T04:17:55;2.20;1.00
318;DHT22;146;53.448;10.228;2022-11-20T04:20:23;2.30;1.00
318;DHT22;146;53.448;10.228;2022-11-20T04:22:53;2.20;1.00
318;DHT22;146;53.448;10.228;2022-11-20T04:25:20;2.20;1.00
318;DHT22;146;53.448;10.228;2022-11-20T04:27:47;2.20;1.00
318;DHT22;146;53.448;10.228;2022-11-20T04:30:14;2.10;1.00
318;DHT22;146;53.448;10.228;2022-11-20T04:32:41;2.10;1.00
318;DHT22;146;53.448;10.228;2022-11-20T04:35:08;2.10;1.00
318;DHT22;146;53.448;10.228;2022-11-20T04:37:36;2.20;1.00
318;DHT22;146;53.448;10.228;2022-11-20T04:40:04;2.20;1.00
318;DHT22;146;53.448;10.228;2022-11-20T04:42:31;2.20;1.00
318;DHT22;146;53.448;10.228;2022-11-20T04:44:58;2.20;1.00
318;DHT22;146;53.448;10.228;2022-11-20T04:47:24;2.10;1.00
318;DHT22;146;53.448;10.228;2022-11-20T04:49:51;2.10;1.00
318;DHT22;146;53.448;10.228;2022-11-20T04:52:18;2.10;1.00
318;DHT22;146;53.448;10.228;2022-11-20T04:54:46;2.00;1.00
318;DHT22;146;53.448;10.228;2022-11-20T04:57:14;2.00;1.00
318;DHT22;146;53.448;10.228;2022-11-20T04:59:41;2.20;1.00
318;DHT22;146;53.448;10.228;2022-11-20T05:02:09;2.30;1.00
318;DHT22;146;53.448;10.228;2022-11-20T05:04:36;2.30;1.00
318;DHT22;146;53.448;10.228;2022-11-20T05:07:05;2.30;1.00
318;DHT22;146;53.448;10.228;2022-11-20T05:09:32;2.40;1.00
318;DHT22;146;53.448;10.228;2022-11-20T05:12:00;2.40;1.00
318;DHT22;146;53.448;10.228;2022-11-20T05:14:27;2.40;1.00
318;DHT22;146;53.448;10.228;2022-11-20T05:16:54;2.50;1.00
318;DHT22;146;53.448;10.228;2022-11-20T05:19:20;2.50;1.00
318;DHT22;146;53.448;10.228;2022-11-20T05:21:47;2.40;1.00
318;DHT22;146;53.448;10.228;2022-11-20T05:24:14;2.40;1.00
318;DHT22;146;53.448;10.228;2022-11-20T05:26:41;2.40;1.00
318;DHT22;146;53.448;10.228;2022-11-20T05:29:11;2.30;1.00
318;DHT22;146;53.448;10.228;2022-11-20T05:31:39;2.30;1.00
318;DHT22;146;53.448;10.228;2022-11-20T05:34:07;2.30;1.00
318;DHT22;146;53.448;10.228;2022-11-20T05:36:34;2.30;1.00
318;DHT22;146;53.448;10.228;2022-11-20T05:39:01;2.30;1.00
318;DHT22;146;53.448;10.228;2022-11-20T05:41:28;2.20;1.00
318;DHT22;146;53.448;10.228;2022-11-20T05:43:56;2.20;1.00
318;DHT22;146;53.448;10.228;2022-11-20T05:46:24;2.20;1.00
318;DHT22;146;53.448;10.228;2022-11-20T05:48:51;2.30;1.00
318;DHT22;146;53.448;10.228;2022-11-20T05:51:19;2.30;1.00
318;DHT22;146;53.448;10.228;2022-11-20T05:53:46;2.30;1.00
318;DHT22;146;53.448;10.228;2022-11-20T05:56:15;2.30;1.00
318;DHT22;146;53.448;10.228;2022-11-20T05:58:42;2.40;1.00
318;DHT22;146;53.448;10.228;2022-11-20T06:01:12;2.40;1.00
318;DHT22;146;53.448;10.228;2022-11-20T06:03:41;2.40;1.00
318;DHT22;146;53.448;10.228;2022-11-20T06:06:11;2.50;1.00
318;DHT22;146;53.448;10.228;2022-11-20T06:08:39;2.40;1.00
318;DHT22;146;53.448;10.228;2022-11-20T06:11:07;2.40;1.00
318;DHT22;146;53.448;10.228;2022-11-20T06:13:34;2.40;1.00
318;DHT22;146;53.448;10.228;2022-11-20T06:16:02;2.50;1.00
318;DHT22;146;53.448;10.228;2022-11-20T06:18:29;2.40;1.00
318;DHT22;146;53.448;10.228;2022-11-20T06:21:02;2.40;1.00
318;DHT22;146;53.448;10.228;2022-11-20T06:23:33;2.30;1.00
318;DHT22;146;53.448;10.228;2022-11-20T06:26:02;2.30;1.00
318;DHT22;146;53.448;10.228;2022-11-20T06:28:29;2.30;1.00
318;DHT22;146;53.448;10.228;2022-11-20T06:30:56;2.20;1.00
318;DHT22;146;53.448;10.228;2022-11-20T06:33:23;2.20;1.00
318;DHT22;146;53.448;10.228;2022-11-20T06:35:50;2.20;1.00
318;DHT22;146;53.448;10.228;2022-11-20T06:38:19;2.20;1.00
318;DHT22;146;53.448;10.228;2022-11-20T06:40:45;2.20;1.00
318;DHT22;146;53.448;10.228;2022-11-20T06:43:12;2.10;1.00
318;DHT22;146;53.448;10.228;2022-11-20T06:45:39;2.10;1.00
318;DHT22;146;53.448;10.228;2022-11-20T06:48:06;2.10;1.00
318;DHT22;146;53.448;10.228;2022-11-20T06:50:33;2.10;1.00
318;DHT22;146;53.448;10.228;2022-11-20T06:53:04;2.20;1.00
318;DHT22;146;53.448;10.228;2022-11-20T06:55:32;2.20;1.00
318;DHT22;146;53.448;10.228;2022-11-20T06:57:59;2.20;1.00
318;DHT22;146;53.448;10.228;2022-11-20T07:00:26;2.20;1.00
318;DHT22;146;53.448;10.228;2022-11-20T07:02:53;2.10;1.00
318;DHT22;146;53.448;10.228;2022-11-20T07:05:20;2.10;1.00
318;DHT22;146;53.448;10.228;2022-11-20T07:07:47;2.20;1.00
318;DHT22;146;53.448;10.228;2022-11-20T07:10:14;2.20;1.00
318;DHT22;146;53.448;10.228;2022-11-20T07:12:49;2.20;1.00
318;DHT22;146;53.448;10.228;2022-11-20T07:15:16;2.30;1.00
318;DHT22;146;53.448;10.228;2022-11-20T07:17:43;2.20;1.00
318;DHT22;146;53.448;10.228;2022-11-20T07:20:11;2.30;1.00
318;DHT22;146;53.448;10.228;2022-11-20T07:22:38;2.30;1.00
318;DHT22;146;53.448;10.228;2022-11-20T07:25:06;2.30;1.00
318;DHT22;146;53.448;10.228;2022-11-20T07:27:34;2.30;1.00
318;DHT22;146;53.448;10.228;2022-11-20T07:30:03;2.30;1.00
318;DHT22;146;53.448;10.228;2022-11-20T07:32:30;2.40;1.00
318;DHT22;146;53.448;10.228;2022-11-20T07:34:58;2.30;1.00
318;DHT22;146;53.448;10.228;2022-11-20T07:37:24;2.40;1.00
318;DHT22;146;53.448;10.228;2022-11-20T07:39:51;2.40;1.00
318;DHT22;146;53.448;10.228;2022-11-20T07:42:18;2.50;1.00
318;DHT22;146;53.448;10.228;2022-11-20T07:44:45;2.50;1.00
318;DHT22;146;53.448;10.228;2022-11-20T07:47:13;2.50;1.00
318;DHT22;146;53.448;10.228;2022-11-20T07:49:40;2.50;1.00
318;DHT22;146;53.448;10.228;2022-11-20T07:52:07;2.60;1.00
318;DHT22;146;53.448;10.228;2022-11-20T07:54:34;2.50;1.00
318;DHT22;146;53.448;10.228;2022-11-20T07:57:01;2.50;1.00
318;DHT22;146;53.448;10.228;2022-11-20T07:59:28;2.50;1.00
318;DHT22;146;53.448;10.228;2022-11-20T08:01:55;2.50;1.00
318;DHT22;146;53.448;10.228;2022-11-20T08:04:26;2.40;1.00
318;DHT22;146;53.448;10.228;2022-11-20T08:06:53;2.40;1.00
318;DHT22;146;53.448;10.228;2022-11-20T08:09:20;2.50;1.00
318;DHT22;146;53.448;10.228;2022-11-20T08:11:47;2.60;1.00
318;DHT22;146;53.448;10.228;2022-11-20T08:14:31;2.60;1.00
318;DHT22;146;53.448;10.228;2022-11-20T08:16:58;2.60;1.00
318;DHT22;146;53.448;10.228;2022-11-20T08:19:26;2.60;1.00
318;DHT22;146;53.448;10.228;2022-11-20T08:21:55;2.50;1.00
318;DHT22;146;53.448;10.228;2022-11-20T08:24:22;2.60;1.00
318;DHT22;146;53.448;10.228;2022-11-20T08:26:50;2.70;1.00
318;DHT22;146;53.448;10.228;2022-11-20T08:29:17;2.70;1.00
318;DHT22;146;53.448;10.228;2022-11-20T08:31:47;2.70;1.00
318;DHT22;146;53.448;10.228;2022-11-20T08:34:14;2.70;1.00
318;DHT22;146;53.448;10.228;2022-11-20T08:36:42;2.70;1.00
318;DHT22;146;53.448;10.228;2022-11-20T08:39:12;2.70;1.00
318;DHT22;146;53.448;10.228;2022-11-20T08:41:39;2.80;1.00
318;DHT22;146;53.448;10.228;2022-11-20T08:44:07;2.70;1.00
318;DHT22;146;53.448;10.228;2022-11-20T08:46:35;2.80;1.00
318;DHT22;146;53.448;10.228;2022-11-20T08:49:03;2.80;1.00
318;DHT22;146;53.448;10.228;2022-11-20T08:51:30;2.80;1.00
318;DHT22;146;53.448;10.228;2022-11-20T08:53:58;2.80;1.00
318;DHT22;146;53.448;10.228;2022-11-20T08:56:25;2.70;1.00
318;DHT22;146;53.448;10.228;2022-11-20T08:58:52;2.80;1.00
318;DHT22;146;53.448;10.228;2022-11-20T09:01:22;2.70;1.00
318;DHT22;146;53.448;10.228;2022-11-20T09:03:49;2.80;1.00
318;DHT22;146;53.448;10.228;2022-11-20T09:06:16;2.80;1.00
318;DHT22;146;53.448;10.228;2022-11-20T09:08:44;2.90;1.00
318;DHT22;146;53.448;10.228;2022-11-20T09:11:17;2.80;1.00
318;DHT22;146;53.448;10.228;2022-11-20T09:13:48;2.90;1.00
318;DHT22;146;53.448;10.228;2022-11-20T09:16:55;2.90;1.00
318;DHT22;146;53.448;10.228;2022-11-20T09:19:23;3.00;1.00
318;DHT22;146;53.448;10.228;2022-11-20T09:21:50;3.00;1.00
318;DHT22;146;53.448;10.228;2022-11-20T09:24:17;3.00;1.00
318;DHT22;146;53.448;10.228;2022-11-20T09:26:50;3.00;1.00
318;DHT22;146;53.448;10.228;2022-11-20T09:29:16;3.10;1.00
318;DHT22;146;53.448;10.228;2022-11-20T09:31:44;3.10;1.00
318;DHT22;146;53.448;10.228;2022-11-20T09:34:10;3.00;1.00
318;DHT22;146;53.448;10.228;2022-11-20T09:36:40;3.10;1.00
318;DHT22;146;53.448;10.228;2022-11-20T09:39:06;3.10;1.00
318;DHT22;146;53.448;10.228;2022-11-20T09:41:47;3.10;1.00
318;DHT22;146;53.448;10.228;2022-11-20T09:44:30;3.20;1.00
318;DHT22;146;53.448;10.228;2022-11-20T09:47:02;3.20;1.00
318;DHT22;146;53.448;10.228;2022-11-20T09:49:38;3.20;1.00
318;DHT22;146;53.448;10.228;2022-11-20T09:52:16;3.30;1.00
318;DHT22;146;53.448;10.228;2022-11-20T09:54:45;3.30;1.00
318;DHT22;146;53.448;10.228;2022-11-20T09:57:21;3.30;1.00
318;DHT22;146;53.448;10.228;2022-11-20T09:59:52;3.30;1.00
318;DHT22;146;53.448;10.228;2022-11-20T10:02:27;3.40;1.00
318;DHT22;146;53.448;10.228;2022-11-20T10:04:59;3.30;1.00
318;DHT22;146;53.448;10.228;2022-11-20T10:07:32;3.30;1.00
318;DHT22;146;53.448;10.228;2022-11-20T10:10:03;3.30;1.00
318;DHT22;146;53.448;10.228;2022-11-20T10:12:39;3.20;1.00
318;DHT22;146;53.448;10.228;2022-11-20T10:15:25;3.30;1.00
318;DHT22;146;53.448;10.228;2022-11-20T10:18:09;3.30;1.00
318;DHT22;146;53.448;10.228;2022-11-20T10:20:45;3.20;1.00
318;DHT22;146;53.448;10.228;2022-11-20T10:23:24;3.20;1.00
318;DHT22;146;53.448;10.228;2022-11-20T10:26:00;3.10;1.00
318;DHT22;146;53.448;10.228;2022-11-20T10:28:45;3.00;1.00
318;DHT22;146;53.448;10.228;2022-11-20T10:31:22;3.00;1.00
318;DHT22;146;53.448;10.228;2022-11-20T10:33:54;3.00;1.00
318;DHT22;146;53.448;10.228;2022-11-20T10:36:27;3.10;1.00
318;DHT22;146;53.448;10.228;2022-11-20T10:38:58;3.10;1.00
318;DHT22;146;53.448;10.228;2022-11-20T10:41:34;3.20;1.00
318;DHT22;146;53.448;10.228;2022-11-20T10:44:11;3.30;1.00
318;DHT22;146;53.448;10.228;2022-11-20T10:49:50;3.40;1.00
318;DHT22;146;53.448;10.228;2022-11-20T10:52:26;3.40;1.00
318;DHT22;146;53.448;10.228;2022-11-20T10:55:04;3.40;1.00
318;DHT22;146;53.448;10.228;2022-11-20T10:57:45;3.30;1.00
318;DHT22;146;53.448;10.228;2022-11-20T11:00:15;3.30;1.00
318;DHT22;146;53.448;10.228;2022-11-20T11:02:48;3.20;1.00
318;DHT22;146;53.448;10.228;2022-11-20T11:05:36;3.30;1.00
318;DHT22;146;53.448;10.228;2022-11-20T11:08:09;3.20;1.00
318;DHT22;146;53.448;10.228;2022-11-20T11:10:42;3.20;1.00
318;DHT22;146;53.448;10.228;2022-11-20T11:13:20;3.40;1.00
318;DHT22;146;53.448;10.228;2022-11-20T11:15:48;3.40;1.00
318;DHT22;146;53.448;10.228;2022-11-20T11:18:24;3.50;1.00
318;DHT22;146;53.448;10.228;2022-11-20T11:20:53;3.50;1.00
318;DHT22;146;53.448;10.228;2022-11-20T11:23:30;3.50;1.00
318;DHT22;146;53.448;10.228;2022-11-20T11:25:58;3.40;1.00
318;DHT22;146;53.448;10.228;2022-11-20T11:28:26;3.50;1.00
318;DHT22;146;53.448;10.228;2022-11-20T11:30:55;3.40;1.00
318;DHT22;146;53.448;10.228;2022-11-20T11:33:25;3.50;1.00
318;DHT22;146;53.448;10.228;2022-11-20T11:35:53;3.60;1.00
318;DHT22;146;53.448;10.228;2022-11-20T11:38:28;3.60;1.00
318;DHT22;146;53.448;10.228;2022-11-20T11:40:56;3.80;1.00
318;DHT22;146;53.448;10.228;2022-11-20T11:43:25;3.80;1.00
318;DHT22;146;53.448;10.228;2022-11-20T11:46:26;3.80;1.00
318;DHT22;146;53.448;10.228;2022-11-20T11:48:59;3.90;1.00
318;DHT22;146;53.448;10.228;2022-11-20T11:51:32;3.80;1.00
318;DHT22;146;53.448;10.228;2022-11-20T11:54:01;3.70;1.00
318;DHT22;146;53.448;10.228;2022-11-20T11:56:30;3.80;1.00
318;DHT22;146;53.448;10.228;2022-11-20T11:59:04;3.80;1.00
318;DHT22;146;53.448;10.228;2022-11-20T12:01:41;3.80;1.00
318;DHT22;146;53.448;10.228;2022-11-20T12:04:16;3.70;1.00
318;DHT22;146;53.448;10.228;2022-11-20T12:06:50;3.80;1.00
318;DHT22;146;53.448;10.228;2022-11-20T12:09:18;3.80;1.00
318;DHT22;146;53.448;10.228;2022-11-20T12:11:53;3.90;1.00
318;DHT22;146;53.448;10.228;2022-11-20T12:14:26;4.00;1.00
318;DHT22;146;53.448;10.228;2022-11-20T12:16:55;4.00;1.00
318;DHT22;146;53.448;10.228;2022-11-20T12:19:23;4.00;1.00
318;DHT22;146;53.448;10.228;2022-11-20T12:21:55;4.10;1.00
318;DHT22;146;53.448;10.228;2022-11-20T12:24:39;4.10;1.00
318;DHT22;146;53.448;10.228;2022-11-20T12:27:41;4.10;1.00
318;DHT22;146;53.448;10.228;2022-11-20T12:30:11;4.00;1.00
318;DHT22;146;53.448;10.228;2022-11-20T12:35:57;3.50;1.00
318;DHT22;146;53.448;10.228;2022-11-20T12:38:43;3.40;1.00
318;DHT22;146;53.448;10.228;2022-11-20T12:41:18;3.30;1.00
318;DHT22;146;53.448;10.228;2022-11-20T12:44:08;3.30;1.00
318;DHT22;146;53.448;10.228;2022-11-20T12:47:08;3.40;1.00
318;DHT22;146;53.448;10.228;2022-11-20T12:49:44;3.50;1.00
318;DHT22;146;53.448;10.228;2022-11-20T12:52:37;3.60;1.00
318;DHT22;146;53.448;10.228;2022-11-20T12:55:21;3.80;1.00
318;DHT22;146;53.448;10.228;2022-11-20T12:57:54;3.60;1.00
318;DHT22;146;53.448;10.228;2022-11-20T13:00:24;3.60;1.00
318;DHT22;146;53.448;10.228;2022-11-20T13:03:05;3.70;1.00
318;DHT22;146;53.448;10.228;2022-11-20T13:05:40;3.60;1.00
318;DHT22;146;53.448;10.228;2022-11-20T13:08:18;3.50;1.00
318;DHT22;146;53.448;10.228;2022-11-20T13:10:50;3.50;1.00
318;DHT22;146;53.448;10.228;2022-11-20T13:13:24;3.60;1.00
318;DHT22;146;53.448;10.228;2022-11-20T13:15:56;3.60;1.00
318;DHT22;146;53.448;10.228;2022-11-20T13:18:26;3.50;1.00
318;DHT22;146;53.448;10.228;2022-11-20T13:20:54;3.50;1.00
318;DHT22;146;53.448;10.228;2022-11-20T13:23:24;3.60;1.00
318;DHT22;146;53.448;10.228;2022-11-20T13:26:06;3.60;1.00
318;DHT22;146;53.448;10.228;2022-11-20T13:28:40;3.60;1.00
318;DHT22;146;53.448;10.228;2022-11-20T13:31:24;3.70;1.00
318;DHT22;146;53.448;10.228;2022-11-20T13:33:55;3.60;1.00
318;DHT22;146;53.448;10.228;2022-11-20T13:36:26;3.50;1.00
318;DHT22;146;53.448;10.228;2022-11-20T13:38:55;3.50;1.00
318;DHT22;146;53.448;10.228;2022-11-20T13:41:26;3.50;1.00
318;DHT22;146;53.448;10.228;2022-11-20T13:44:05;3.60;1.00
318;DHT22;146;53.448;10.228;2022-11-20T13:46:37;3.70;1.00
318;DHT22;146;53.448;10.228;2022-11-20T13:49:08;3.80;1.00
318;DHT22;146;53.448;10.228;2022-11-20T13:51:42;3.80;1.00
318;DHT22;146;53.448;10.228;2022-11-20T13:54:39;3.80;1.00
318;DHT22;146;53.448;10.228;2022-11-20T14:00:18;4.00;1.00
318;DHT22;146;53.448;10.228;2022-11-20T14:02:57;4.10;1.00
318;DHT22;146;53.448;10.228;2022-11-20T14:05:26;4.10;1.00
318;DHT22;146;53.448;10.228;2022-11-20T14:07:54;4.10;1.00
318;DHT22;146;53.448;10.228;2022-11-20T14:10:23;4.00;1.00
318;DHT22;146;53.448;10.228;2022-11-20T14:12:50;4.00;1.00
318;DHT22;146;53.448;10.228;2022-11-20T14:15:28;4.00;1.00
318;DHT22;146;53.448;10.228;2022-11-20T14:17:59;3.90;1.00
318;DHT22;146;53.448;10.228;2022-11-20T14:20:31;3.90;1.00
318;DHT22;146;53.448;10.228;2022-11-20T14:23:00;4.00;1.00
318;DHT22;146;53.448;10.228;2022-11-20T14:25:31;4.00;1.00
318;DHT22;146;53.448;10.228;2022-11-20T14:28:00;3.90;1.00
318;DHT22;146;53.448;10.228;2022-11-20T14:30:28;3.90;1.00
318;DHT22;146;53.448;10.228;2022-11-20T14:35:48;3.80;1.00
318;DHT22;146;53.448;10.228;2022-11-20T14:38:21;3.80;1.00
318;DHT22;146;53.448;10.228;2022-11-20T14:40:48;3.80;1.00
318;DHT22;146;53.448;10.228;2022-11-20T14:43:18;3.90;1.00
318;DHT22;146;53.448;10.228;2022-11-20T14:45:52;4.10;1.00
318;DHT22;146;53.448;10.228;2022-11-20T14:48:24;4.20;1.00
318;DHT22;146;53.448;10.228;2022-11-20T14:50:54;4.20;1.00
318;DHT22;146;53.448;10.228;2022-11-20T14:53:23;4.20;1.00
318;DHT22;146;53.448;10.228;2022-11-20T14:55:56;4.20;1.00
318;DHT22;146;53.448;10.228;2022-11-20T14:58:24;4.20;1.00
318;DHT22;146;53.448;10.228;2022-11-20T15:01:05;4.20;1.00
318;DHT22;146;53.448;10.228;2022-11-20T15:03:33;4.10;1.00
318;DHT22;146;53.448;10.228;2022-11-20T15:06:00;4.10;1.00
318;DHT22;146;53.448;10.228;2022-11-20T15:08:29;4.10;1.00
318;DHT22;146;53.448;10.228;2022-11-20T15:10:56;4.10;1.00
318;DHT22;146;53.448;10.228;2022-11-20T15:13:26;4.10;1.00
318;DHT22;146;53.448;10.228;2022-11-20T15:15:56;4.10;1.00
318;DHT22;146;53.448;10.228;2022-11-20T15:18:27;4.20;1.00
318;DHT22;146;53.448;10.228;2022-11-20T15:20:55;4.20;1.00
318;DHT22;146;53.448;10.228;2022-11-20T15:23:23;4.20;1.00
318;DHT22;146;53.448;10.228;2022-11-20T15:25:51;4.30;1.00
318;DHT22;146;53.448;10.228;2022-11-20T15:28:21;4.30;1.00
318;DHT22;146;53.448;10.228;2022-11-20T15:30:49;4.40;1.00
318;DHT22;146;53.448;10.228;2022-11-20T15:33:17;4.40;1.00
318;DHT22;146;53.448;10.228;2022-11-20T15:35:44;4.40;1.00
318;DHT22;146;53.448;10.228;2022-11-20T15:38:11;4.40;1.00
318;DHT22;146;53.448;10.228;2022-11-20T15:40:38;4.40;1.00
318;DHT22;146;53.448;10.228;2022-11-20T15:43:06;4.30;1.00
318;DHT22;146;53.448;10.228;2022-11-20T15:45:39;4.30;1.00
318;DHT22;146;53.448;10.228;2022-11-20T15:48:11;4.30;1.00
318;DHT22;146;53.448;10.228;2022-11-20T15:50:41;4.20;1.00
318;DHT22;146;53.448;10.228;2022-11-20T15:53:10;4.20;1.00
318;DHT22;146;53.448;10.228;2022-11-20T15:55:37;4.30;1.00
318;DHT22;146;53.448;10.228;2022-11-20T15:58:05;4.20;1.00
318;DHT22;146;53.448;10.228;2022-11-20T16:00:32;4.20;1.00
318;DHT22;146;53.448;10.228;2022-11-20T16:02:59;4.20;1.00
318;DHT22;146;53.448;10.228;2022-11-20T16:05:28;4.20;1.00
318;DHT22;146;53.448;10.228;2022-11-20T16:07:55;4.20;1.00
318;DHT22;146;53.448;10.228;2022-11-20T16:10:23;4.10;1.00
318;DHT22;146;53.448;10.228;2022-11-20T16:12:50;4.00;1.00
318;DHT22;146;53.448;10.228;2022-11-20T16:15:35;4.00;1.00
318;DHT22;146;53.448;10.228;2022-11-20T16:18:13;4.00;1.00
318;DHT22;146;53.448;10.228;2022-11-20T16:20:40;4.00;1.00
318;DHT22;146;53.448;10.228;2022-11-20T16:23:07;4.00;1.00
318;DHT22;146;53.448;10.228;2022-11-20T16:25:34;4.00;1.00
318;DHT22;146;53.448;10.228;2022-11-20T16:28:01;3.90;1.00
318;DHT22;146;53.448;10.228;2022-11-20T16:30:28;3.90;1.00
318;DHT22;146;53.448;10.228;2022-11-20T16:33:01;3.90;1.00
318;DHT22;146;53.448;10.228;2022-11-20T16:35:29;3.90;1.00
318;DHT22;146;53.448;10.228;2022-11-20T16:37:57;4.00;1.00
318;DHT22;146;53.448;10.228;2022-11-20T16:40:25;4.00;1.00
318;DHT22;146;53.448;10.228;2022-11-20T16:42:52;4.00;1.00
318;DHT22;146;53.448;10.228;2022-11-20T16:45:18;4.00;1.00
318;DHT22;146;53.448;10.228;2022-11-20T16:47:45;3.90;1.00
318;DHT22;146;53.448;10.228;2022-11-20T16:50:14;3.80;1.00
318;DHT22;146;53.448;10.228;2022-11-20T16:52:41;3.80;1.00
318;DHT22;146;53.448;10.228;2022-11-20T16:55:08;3.70;1.00
318;DHT22;146;53.448;10.228;2022-11-20T16:57:35;3.60;1.00
318;DHT22;146;53.448;10.228;2022-11-20T17:00:03;3.60;1.00
318;DHT22;146;53.448;10.228;2022-11-20T17:02:30;3.60;1.00
318;DHT22;146;53.448;10.228;2022-11-20T17:04:58;3.60;1.00
318;DHT22;146;53.448;10.228;2022-11-20T17:07:27;3.60;1.00
318;DHT22;146;53.448;10.228;2022-11-20T17:09:53;3.60;1.00
318;DHT22;146;53.448;10.228;2022-11-20T17:12:20;3.60;1.00
318;DHT22;146;53.448;10.228;2022-11-20T17:14:47;3.70;1.00
318;DHT22;146;53.448;10.228;2022-11-20T17:17:14;3.70;1.00
318;DHT22;146;53.448;10.228;2022-11-20T17:19:41;3.70;1.00
318;DHT22;146;53.448;10.228;2022-11-20T17:22:08;3.70;1.00
318;DHT22;146;53.448;10.228;2022-11-20T17:24:36;3.70;1.00